Vendome Street — A8YI6 — position and weather

sailwx.info

Track history (hours):
 
Tides and Currents Weather Stations Pressure Air Temp Water Temp Dewpoint Dewpoint Depression Visibility Wind Speed Wind Dir Waves Ship Positions

Vendome Street

Last reported at 2016-Nov-28 14:33 UTC. Time now 2016-Dec-03 17:45 UTC.
Position N 17°49' W 061°05'.

Length 177 m; draft 9.3 m.

Type: Ship. MMSI: 636015064.

Date/timePositionNaut miles runAvg speedWind from/ knotsBaromVisibWave heightAir tempDewpointWater temp
2016-Nov-28 14:33N 17°49' W 061°05'1412.8
2016-Nov-28 13:28N 17°58' W 061°16'6713.0
2016-Nov-28 08:19N 18°36' W 062°14'  
2016-Nov-21 13:33N 29°30' W 094°52'1010.4
2016-Nov-21 12:33N 29°39' W 094°58'7 7.3
2016-Nov-21 11:33N 29°45' W 095°04'3 2.5
2016-Nov-21 10:19N 29°44' W 095°07'0 0.0
2016-Nov-19 16:33N 29°44' W 095°07'14 7.0
2016-Nov-19 14:33N 29°34' W 094°56'17 5.0
2016-Nov-19 11:12N 29°21' W 094°44'0 0.0
2016-Nov-19 07:33N 29°21' W 094°44'0 0.0
2016-Nov-19 05:33N 29°21' W 094°44'0 0.0
2016-Nov-19 04:30N 29°21' W 094°44'0 0.0
2016-Nov-19 03:27N 29°21' W 094°44'0 0.0
2016-Nov-19 01:27N 29°21' W 094°44'0 0.0
2016-Nov-19 00:30N 29°21' W 094°44'0 0.0
2016-Nov-18 20:24N 29°21' W 094°44'  
Track history (hours):
 
Tides and Currents Weather Stations Pressure Air Temp Water Temp Dewpoint Dewpoint Depression Visibility Wind Speed Wind Dir Waves Ship Positions

Vendome Street

Last reported at 2016-Nov-28 14:33 UTC. Time now 2016-Dec-03 17:45 UTC.
Position N 17°49' W 061°05'.

Length 177 m; draft 9.3 m.

Type: Ship. MMSI: 636015064.

Date/timePositionNaut miles runAvg speedWind from/ knotsBaromVisibWave heightAir tempDewpointWater temp
2016-Nov-28 14:33N 17°49' W 061°05'1412.8
2016-Nov-28 13:28N 17°58' W 061°16'6713.0
2016-Nov-28 08:19N 18°36' W 062°14'  
2016-Nov-21 13:33N 29°30' W 094°52'1010.4
2016-Nov-21 12:33N 29°39' W 094°58'7 7.3
2016-Nov-21 11:33N 29°45' W 095°04'3 2.5
2016-Nov-21 10:19N 29°44' W 095°07'0 0.0
2016-Nov-19 16:33N 29°44' W 095°07'14 7.0
2016-Nov-19 14:33N 29°34' W 094°56'17 5.0
2016-Nov-19 11:12N 29°21' W 094°44'0 0.0
2016-Nov-19 07:33N 29°21' W 094°44'0 0.0
2016-Nov-19 05:33N 29°21' W 094°44'0 0.0
2016-Nov-19 04:30N 29°21' W 094°44'0 0.0
2016-Nov-19 03:27N 29°21' W 094°44'0 0.0
2016-Nov-19 01:27N 29°21' W 094°44'0 0.0
2016-Nov-19 00:30N 29°21' W 094°44'0 0.0
2016-Nov-18 20:24N 29°21' W 094°44'  

Dump ship's entire track history